Time;durP1;ratioP1;P1;durP2;ratioP2;P2;SDS_P1;SDS_P2;PMS_P1;PMS_P2;Temp;Humidity;BMP_temperature;BMP_pressure;BME280_temperature;BME280_humidity;BME280_pressure;Samples;Min_cycle;Max_cycle;Signal;HPM_P1;HPM_P2
2023/07/30 00:01:30;;;;;;;5.38;4.88;;;17.70;99.90;;;;;;5074969;28;20255;-78
2023/07/30 00:03:57;;;;;;;5.55;4.60;;;17.60;99.90;;;;;;5075077;28;20778;-78
2023/07/30 00:06:23;;;;;;;5.55;4.68;;;17.60;99.90;;;;;;5074889;28;20193;-77
2023/07/30 00:08:50;;;;;;;5.40;4.90;;;17.60;99.90;;;;;;5074752;28;20197;-77
2023/07/30 00:11:17;;;;;;;5.30;4.80;;;17.60;99.90;;;;;;5074699;28;20224;-77
2023/07/30 00:13:44;;;;;;;6.50;4.40;;;17.70;99.90;;;;;;5074718;28;20243;-77
2023/07/30 00:16:11;;;;;;;4.68;4.18;;;17.70;99.90;;;;;;5074340;28;20658;-77
2023/07/30 00:18:38;;;;;;;4.95;4.43;;;17.60;99.90;;;;;;5074517;28;20197;-77
2023/07/30 00:21:05;;;;;;;6.07;4.13;;;17.70;99.90;;;;;;5074516;28;20686;-77
2023/07/30 00:23:31;;;;;;;4.85;4.28;;;17.70;99.90;;;;;;5074169;28;20591;-77
2023/07/30 00:25:58;;;;;;;5.63;3.97;;;17.70;99.90;;;;;;5074543;28;20262;-78
2023/07/30 00:28:25;;;;;;;4.60;4.20;;;17.70;99.90;;;;;;5074425;28;20205;-77
2023/07/30 00:30:51;;;;;;;4.47;4.07;;;17.70;99.90;;;;;;5074305;28;20286;-78
2023/07/30 00:33:19;;;;;;;5.50;4.35;;;17.80;99.90;;;;;;5074391;28;20239;-78
2023/07/30 00:35:46;;;;;;;5.68;4.30;;;17.80;99.90;;;;;;5074179;28;20193;-78
2023/07/30 00:38:12;;;;;;;4.53;4.13;;;17.90;99.90;;;;;;5073956;28;20201;-78
2023/07/30 00:40:41;;;;;;;7.10;4.07;;;17.90;99.90;;;;;;5073817;28;20201;-78
2023/07/30 00:43:08;;;;;;;4.10;3.70;;;17.90;99.90;;;;;;5073611;28;20735;-77
2023/07/30 00:45:36;;;;;;;4.47;4.07;;;17.90;99.90;;;;;;5074067;28;20556;-78
2023/07/30 00:48:03;;;;;;;5.00;4.03;;;17.90;99.90;;;;;;5073886;28;20262;-78
2023/07/30 00:50:32;;;;;;;5.22;4.53;;;17.90;99.90;;;;;;5073668;28;20273;-78
2023/07/30 00:52:58;;;;;;;4.68;4.22;;;17.90;99.90;;;;;;5073874;28;20201;-77
2023/07/30 00:55:25;;;;;;;5.22;4.50;;;17.80;99.90;;;;;;5073999;28;20595;-79
2023/07/30 00:57:52;;;;;;;7.28;4.78;;;17.80;99.90;;;;;;5074078;28;20282;-79
2023/07/30 01:00:19;;;;;;;5.75;4.80;;;17.70;99.90;;;;;;5073933;28;20255;-79
2023/07/30 01:02:46;;;;;;;6.45;5.13;;;17.50;99.90;;;;;;5074171;28;20204;-80
2023/07/30 01:05:13;;;;;;;8.52;5.28;;;17.30;99.90;;;;;;5073584;28;20197;-79
2023/07/30 01:07:40;;;;;;;6.45;5.65;;;17.20;99.90;;;;;;5073754;28;20197;-79
2023/07/30 01:10:08;;;;;;;6.97;6.00;;;17.10;99.90;;;;;;5073673;28;20220;-80
2023/07/30 01:12:36;;;;;;;7.88;6.43;;;17.10;99.90;;;;;;5074193;28;20193;-80
2023/07/30 01:15:04;;;;;;;11.43;7.55;;;17.10;99.90;;;;;;5074140;28;20258;-81
2023/07/30 01:17:30;;;;;;;6.78;6.07;;;17.00;99.90;;;;;;5074010;28;20258;-80
2023/07/30 01:19:57;;;;;;;8.00;7.20;;;17.00;99.90;;;;;;5073872;28;20201;-81
2023/07/30 01:22:25;;;;;;;8.43;7.32;;;17.00;99.90;;;;;;5073796;28;20197;-81
2023/07/30 01:24:52;;;;;;;8.70;7.50;;;17.00;99.90;;;;;;5073850;28;20193;-82
2023/07/30 01:27:23;;;;;;;10.80;7.82;;;17.00;99.90;;;;;;5073880;28;20196;-82
2023/07/30 01:29:55;;;;;;;8.70;7.38;;;17.00;99.90;;;;;;5076733;28;20201;-84
2023/07/30 01:32:27;;;;;;;8.90;8.00;;;17.00;99.90;;;;;;5081001;28;20239;-86
2023/07/30 01:34:54;;;;;;;10.43;8.02;;;17.10;99.90;;;;;;5083387;28;20232;-85
2023/07/30 01:37:22;;;;;;;9.27;7.63;;;17.10;99.90;;;;;;5075331;28;20197;-84
2023/07/30 01:39:51;;;;;;;10.75;9.30;;;17.00;99.90;;;;;;5075383;28;20197;-86
2023/07/30 01:42:18;;;;;;;9.10;8.20;;;17.00;99.90;;;;;;5074634;28;20644;-88
2023/07/30 01:44:45;;;;;;;12.13;8.73;;;16.90;99.90;;;;;;5075704;28;20274;-88
2023/07/30 01:47:11;;;;;;;12.70;9.13;;;16.90;99.90;;;;;;5074958;28;20274;-88
2023/07/30 01:49:38;;;;;;;10.57;8.90;;;16.90;99.90;;;;;;5075613;28;20848;-89
2023/07/30 01:52:05;;;;;;;10.07;8.95;;;16.90;99.90;;;;;;5075567;28;20221;-88
2023/07/30 01:54:31;;;;;;;9.35;8.40;;;16.90;99.90;;;;;;5076828;28;20250;-88
2023/07/30 01:57:00;;;;;;;9.13;8.17;;;16.90;99.90;;;;;;5075194;28;20286;-87
2023/07/30 01:59:27;;;;;;;9.35;8.20;;;16.80;99.90;;;;;;5074445;28;20243;-88
2023/07/30 02:01:54;;;;;;;8.93;7.77;;;16.80;99.90;;;;;;5075194;28;20224;-87
2023/07/30 02:04:20;;;;;;;9.07;7.77;;;16.80;99.90;;;;;;5075217;28;20541;-86
2023/07/30 02:06:47;;;;;;;8.38;7.20;;;16.80;99.90;;;;;;5079870;28;20243;-86
2023/07/30 02:09:13;;;;;;;10.10;8.23;;;16.70;99.90;;;;;;5074998;28;20254;-86
2023/07/30 02:11:40;;;;;;;7.93;7.13;;;16.70;99.90;;;;;;5075589;28;20220;-86
2023/07/30 02:14:09;;;;;;;10.27;7.97;;;16.70;99.90;;;;;;5074598;28;20196;-86
2023/07/30 02:16:36;;;;;;;8.90;8.00;;;16.70;99.90;;;;;;5074236;28;20667;-85
2023/07/30 02:19:02;;;;;;;12.83;7.30;;;16.70;99.90;;;;;;5074258;28;20254;-85
2023/07/30 02:21:32;;;;;;;10.33;8.03;;;16.70;99.90;;;;;;5073748;28;20537;-85
2023/07/30 02:23:59;;;;;;;9.73;8.33;;;16.70;99.90;;;;;;5073750;28;20512;-85
2023/07/30 02:26:26;;;;;;;9.20;8.30;;;16.70;99.90;;;;;;5073867;28;20648;-85
2023/07/30 02:28:52;;;;;;;8.30;7.40;;;16.70;99.90;;;;;;5074177;28;20534;-85
2023/07/30 02:31:20;;;;;;;9.00;8.10;;;16.70;99.90;;;;;;5079600;28;20224;-84
2023/07/30 02:33:47;;;;;;;10.07;9.07;;;16.70;99.90;;;;;;5073895;28;20197;-85
2023/07/30 02:36:14;;;;;;;10.77;8.70;;;16.70;99.90;;;;;;5074051;28;20201;-84
2023/07/30 02:38:40;;;;;;;10.77;8.90;;;16.70;99.90;;;;;;5073627;28;20676;-84
2023/07/30 02:41:07;;;;;;;10.07;9.07;;;16.80;99.90;;;;;;5073576;28;20205;-84
2023/07/30 02:43:33;;;;;;;10.55;9.23;;;16.80;99.90;;;;;;5073276;28;20657;-85
2023/07/30 02:46:00;;;;;;;9.60;8.30;;;16.80;99.90;;;;;;5073453;28;20201;-84
2023/07/30 02:48:28;;;;;;;11.48;9.02;;;16.80;99.90;;;;;;5073552;28;20649;-84
2023/07/30 02:50:55;;;;;;;10.07;8.90;;;16.80;99.90;;;;;;5073269;28;20213;-84
2023/07/30 02:53:21;;;;;;;10.67;9.60;;;16.80;99.90;;;;;;5073523;28;20262;-83
2023/07/30 02:55:48;;;;;;;13.32;9.13;;;16.80;99.90;;;;;;5073267;28;20193;-83
2023/07/30 02:58:14;;;;;;;10.57;9.47;;;16.80;99.90;;;;;;5072962;28;20224;-84
2023/07/30 03:00:41;;;;;;;12.70;9.87;;;16.80;99.90;;;;;;5073417;28;20247;-84
2023/07/30 03:03:07;;;;;;;11.07;9.83;;;16.80;99.90;;;;;;5073166;28;20219;-83
2023/07/30 03:05:35;;;;;;;11.10;9.90;;;16.70;99.90;;;;;;5075224;28;20197;-83
2023/07/30 03:08:02;;;;;;;11.00;9.90;;;16.70;99.90;;;;;;5076324;28;20197;-83
2023/07/30 03:10:29;;;;;;;14.87;10.60;;;16.70;99.90;;;;;;5076950;28;20204;-83
2023/07/30 03:12:55;;;;;;;14.17;10.00;;;16.70;99.90;;;;;;5076955;28;20204;-83
2023/07/30 03:15:22;;;;;;;11.20;10.07;;;16.70;99.90;;;;;;5076547;28;20208;-83
2023/07/30 03:17:49;;;;;;;11.50;10.17;;;16.70;99.90;;;;;;5076156;28;20654;-83
2023/07/30 03:20:15;;;;;;;10.70;9.67;;;16.80;99.90;;;;;;5076637;28;20197;-83
2023/07/30 03:22:43;;;;;;;11.13;9.63;;;16.80;99.90;;;;;;5076166;28;20205;-82
2023/07/30 03:25:10;;;;;;;10.87;9.77;;;16.80;99.90;;;;;;5076162;28;20196;-82
2023/07/30 03:27:36;;;;;;;11.73;9.50;;;16.70;99.90;;;;;;5076334;28;20201;-82
2023/07/30 03:30:04;;;;;;;11.27;9.83;;;16.70;99.90;;;;;;5075865;28;20251;-82
2023/07/30 03:32:31;;;;;;;10.63;9.53;;;16.70;99.90;;;;;;5075874;28;20229;-82
2023/07/30 03:34:57;;;;;;;10.73;9.53;;;16.70;99.90;;;;;;5076141;28;20247;-82
2023/07/30 03:37:24;;;;;;;10.13;8.97;;;16.70;99.90;;;;;;5076060;28;20205;-82
2023/07/30 03:39:52;;;;;;;11.67;9.63;;;16.70;99.90;;;;;;5075898;28;20266;-82
2023/07/30 03:42:18;;;;;;;11.80;9.67;;;16.70;99.90;;;;;;5075833;28;20197;-82
2023/07/30 03:44:45;;;;;;;11.83;10.23;;;16.70;99.90;;;;;;5076110;28;20196;-82
2023/07/30 03:47:12;;;;;;;13.60;10.30;;;16.60;99.90;;;;;;5075827;28;20725;-81
2023/07/30 03:49:38;;;;;;;11.43;10.33;;;16.60;99.90;;;;;;5075780;28;20197;-81
2023/07/30 03:52:05;;;;;;;12.63;10.32;;;16.60;99.90;;;;;;5075361;28;20699;-82
2023/07/30 03:54:32;;;;;;;12.27;10.80;;;16.50;99.90;;;;;;5075571;28;20205;-82
2023/07/30 03:57:00;;;;;;;16.93;11.27;;;16.60;99.90;;;;;;5075526;28;20278;-81
2023/07/30 03:59:28;;;;;;;14.70;11.53;;;16.60;99.90;;;;;;5075516;28;20203;-82
2023/07/30 04:01:55;;;;;;;12.90;11.53;;;16.60;99.90;;;;;;5075494;28;20193;-81
2023/07/30 04:04:21;;;;;;;14.70;11.37;;;16.60;99.90;;;;;;5075163;28;20201;-82
2023/07/30 04:06:48;;;;;;;14.10;12.03;;;16.60;99.90;;;;;;5075288;28;20657;-82
2023/07/30 04:09:15;;;;;;;13.10;11.23;;;16.70;99.90;;;;;;5076132;28;20227;-82
2023/07/30 04:11:41;;;;;;;13.03;11.57;;;16.70;99.90;;;;;;5075442;28;20485;-82
2023/07/30 04:14:09;;;;;;;14.10;11.27;;;16.70;99.90;;;;;;5075032;28;20270;-82
2023/07/30 04:16:36;;;;;;;12.25;10.95;;;16.70;99.90;;;;;;5075327;28;20197;-81
2023/07/30 04:19:02;;;;;;;12.87;11.27;;;16.80;99.90;;;;;;5075142;28;20246;-81
2023/07/30 04:21:29;;;;;;;11.20;10.00;;;16.80;99.90;;;;;;5075056;28;20197;-82
2023/07/30 04:23:56;;;;;;;9.98;9.07;;;16.80;99.90;;;;;;5074908;28;20645;-81
2023/07/30 04:26:22;;;;;;;9.93;8.88;;;16.80;99.90;;;;;;5074734;28;20668;-82
2023/07/30 04:28:49;;;;;;;12.53;9.63;;;16.90;99.90;;;;;;5075143;28;20217;-82
2023/07/30 04:31:17;;;;;;;9.93;8.93;;;16.90;99.90;;;;;;5074746;28;20733;-82
2023/07/30 04:33:43;;;;;;;8.37;7.37;;;16.90;99.90;;;;;;5074933;28;20247;-82
2023/07/30 04:36:10;;;;;;;7.70;6.90;;;16.90;99.90;;;;;;5074623;28;20251;-82
2023/07/30 04:38:37;;;;;;;7.90;7.10;;;16.90;99.90;;;;;;5075045;28;20197;-82
2023/07/30 04:41:03;;;;;;;8.80;7.00;;;16.90;99.90;;;;;;5075441;28;20194;-82
2023/07/30 04:43:30;;;;;;;7.27;6.30;;;16.90;99.90;;;;;;5075102;28;20201;-83
2023/07/30 04:45:56;;;;;;;7.13;6.47;;;16.90;99.90;;;;;;5075217;28;20526;-82
2023/07/30 04:48:24;;;;;;;7.47;6.18;;;16.90;99.90;;;;;;5075234;28;20200;-83
2023/07/30 04:50:51;;;;;;;6.82;6.13;;;16.90;99.90;;;;;;5075757;28;20579;-83
2023/07/30 04:53:18;;;;;;;6.20;5.60;;;16.90;99.90;;;;;;5075140;28;20232;-81
2023/07/30 04:55:45;;;;;;;7.47;5.50;;;16.90;99.90;;;;;;5074499;28;20270;-81
2023/07/30 04:58:11;;;;;;;7.63;5.57;;;16.90;99.90;;;;;;5074370;28;20229;-81
2023/07/30 05:00:38;;;;;;;5.93;5.43;;;16.90;99.90;;;;;;5075937;28;20193;-83
2023/07/30 05:03:04;;;;;;;5.73;4.90;;;17.00;99.90;;;;;;5074402;28;20251;-83
2023/07/30 05:05:32;;;;;;;5.70;5.10;;;17.00;99.90;;;;;;5074395;28;20250;-83
2023/07/30 05:07:59;;;;;;;6.10;5.50;;;17.10;99.90;;;;;;5077698;28;20258;-84
2023/07/30 05:10:26;;;;;;;7.13;5.33;;;17.00;99.90;;;;;;5074597;28;20204;-83
2023/07/30 05:12:52;;;;;;;5.73;5.13;;;17.00;99.90;;;;;;5074153;28;20225;-83
2023/07/30 05:15:19;;;;;;;5.38;4.88;;;17.00;99.90;;;;;;5074200;28;20204;-83
2023/07/30 05:17:46;;;;;;;5.80;5.20;;;17.00;99.90;;;;;;5074501;28;20197;-83
2023/07/30 05:20:12;;;;;;;5.20;4.70;;;17.00;99.90;;;;;;5074474;28;20668;-83
2023/07/30 05:22:40;;;;;;;5.85;4.90;;;17.10;99.90;;;;;;5074558;28;20615;-82
2023/07/30 05:25:08;;;;;;;5.93;5.32;;;17.20;99.90;;;;;;5074472;28;20319;-83
2023/07/30 05:27:35;;;;;;;5.38;4.88;;;17.30;99.90;;;;;;5074571;28;20193;-83
2023/07/30 05:30:02;;;;;;;6.00;4.72;;;17.40;99.90;;;;;;5075400;28;20197;-83
2023/07/30 05:32:28;;;;;;;5.60;5.03;;;17.50;99.90;;;;;;5075011;28;20220;-83
2023/07/30 05:34:55;;;;;;;5.20;4.70;;;17.60;99.90;;;;;;5074872;28;20302;-83
2023/07/30 05:37:22;;;;;;;5.10;4.68;;;17.70;99.90;;;;;;5075244;28;20197;-83
2023/07/30 05:39:50;;;;;;;8.27;4.72;;;17.90;99.90;;;;;;5074039;28;20718;-83
2023/07/30 05:42:17;;;;;;;5.75;4.65;;;17.90;99.90;;;;;;5074178;28;20197;-82
2023/07/30 05:44:44;;;;;;;5.32;4.40;;;18.10;99.90;;;;;;5073990;28;20606;-83
2023/07/30 05:47:10;;;;;;;4.55;3.88;;;18.10;99.90;;;;;;5074284;28;20205;-82
2023/07/30 05:49:37;;;;;;;5.70;4.10;;;18.10;99.90;;;;;;5074269;28;20201;-83
2023/07/30 05:52:04;;;;;;;4.25;3.80;;;18.20;99.90;;;;;;5073591;28;20229;-82
2023/07/30 05:54:31;;;;;;;4.70;4.25;;;18.30;99.90;;;;;;5073942;28;20220;-82
2023/07/30 05:56:59;;;;;;;4.63;4.10;;;18.30;99.90;;;;;;5073611;28;20225;-81
2023/07/30 05:59:25;;;;;;;4.72;4.32;;;18.10;99.90;;;;;;5074444;28;20193;-82
2023/07/30 06:01:52;;;;;;;5.00;4.60;;;18.00;99.90;;;;;;5073665;28;20602;-81
2023/07/30 06:04:19;;;;;;;5.30;4.60;;;18.10;99.90;;;;;;5074019;28;20254;-81
2023/07/30 06:06:45;;;;;;;5.10;4.70;;;18.20;99.90;;;;;;5073759;28;20266;-81
2023/07/30 06:09:12;;;;;;;7.15;4.82;;;18.10;99.90;;;;;;5073516;28;20193;-80
2023/07/30 06:11:39;;;;;;;5.22;4.72;;;18.00;99.90;;;;;;5073491;28;20621;-80
2023/07/30 06:14:06;;;;;;;5.50;5.00;;;18.00;99.90;;;;;;5073491;28;20200;-80
2023/07/30 06:16:33;;;;;;;5.28;4.85;;;18.10;99.90;;;;;;5073536;28;20204;-78
2023/07/30 06:19:00;;;;;;;5.30;4.80;;;18.30;99.90;;;;;;5073198;28;20250;-79
2023/07/30 06:21:26;;;;;;;5.15;4.75;;;18.30;99.90;;;;;;5073460;28;20603;-80
2023/07/30 06:23:53;;;;;;;9.13;4.82;;;18.30;99.90;;;;;;5073423;28;20673;-80
2023/07/30 06:26:20;;;;;;;4.93;4.53;;;18.40;99.90;;;;;;5073441;28;20201;-79
2023/07/30 06:28:46;;;;;;;7.18;4.93;;;18.50;99.90;;;;;;5073276;28;20246;-79
2023/07/30 06:31:14;;;;;;;5.32;4.88;;;18.40;99.90;;;;;;5073233;28;20209;-80
2023/07/30 06:33:41;;;;;;;5.40;4.90;;;18.40;99.90;;;;;;5072969;28;20761;-79
2023/07/30 06:36:07;;;;;;;5.43;5.03;;;18.50;99.90;;;;;;5073162;28;20193;-80
2023/07/30 06:38:34;;;;;;;5.53;5.13;;;18.60;99.90;;;;;;5072990;28;20205;-78
2023/07/30 06:41:01;;;;;;;5.05;4.65;;;18.70;99.90;;;;;;5076210;28;20201;-78
2023/07/30 06:43:27;;;;;;;5.95;5.50;;;18.90;99.90;;;;;;5076854;28;20638;-79
2023/07/30 06:45:54;;;;;;;5.57;5.13;;;19.00;99.90;;;;;;5076978;28;20318;-79
2023/07/30 06:48:22;;;;;;;5.38;4.88;;;19.20;99.90;;;;;;5076879;28;20641;-78
2023/07/30 06:50:49;;;;;;;5.40;4.90;;;19.30;99.90;;;;;;5076925;28;20251;-76
2023/07/30 06:53:15;;;;;;;5.68;4.80;;;19.40;99.90;;;;;;5076406;28;20239;-78
2023/07/30 06:55:42;;;;;;;5.50;4.97;;;19.30;99.90;;;;;;5076952;28;20193;-78
2023/07/30 06:58:09;;;;;;;5.80;5.30;;;19.20;99.90;;;;;;5076456;28;20259;-78
2023/07/30 07:00:35;;;;;;;6.40;5.43;;;19.20;99.90;;;;;;5076925;28;20201;-79
2023/07/30 07:03:02;;;;;;;5.28;4.88;;;19.20;99.90;;;;;;5076492;28;20201;-79
2023/07/30 07:05:30;;;;;;;5.68;5.00;;;19.10;99.90;;;;;;5076648;28;20251;-79
2023/07/30 07:07:57;;;;;;;5.20;4.72;;;19.20;99.90;;;;;;5076614;28;20205;-80
2023/07/30 07:10:23;;;;;;;5.63;5.18;;;19.10;99.90;;;;;;5076503;28;20246;-81
2023/07/30 07:12:50;;;;;;;6.50;6.00;;;19.00;99.90;;;;;;5076530;28;20294;-80
2023/07/30 07:15:17;;;;;;;5.78;5.13;;;18.80;99.90;;;;;;5076384;28;20197;-80
2023/07/30 07:17:44;;;;;;;6.20;5.70;;;18.80;99.90;;;;;;5077346;28;20197;-81
2023/07/30 07:20:11;;;;;;;5.53;5.03;;;18.60;99.90;;;;;;5079419;28;20661;-81
2023/07/30 07:22:39;;;;;;;5.45;5.05;;;18.30;99.90;;;;;;5076409;28;20287;-82
2023/07/30 07:25:06;;;;;;;5.40;4.90;;;18.30;99.90;;;;;;5076303;28;20201;-82
2023/07/30 07:27:33;;;;;;;6.22;5.72;;;18.10;99.90;;;;;;5078787;28;20197;-82
2023/07/30 07:30:00;;;;;;;6.70;6.10;;;18.10;99.90;;;;;;5076750;28;20192;-83
2023/07/30 07:32:26;;;;;;;6.85;6.32;;;18.00;99.90;;;;;;5076382;28;20270;-82
2023/07/30 07:34:53;;;;;;;6.93;6.32;;;18.00;99.90;;;;;;5077320;28;20789;-82
2023/07/30 07:37:20;;;;;;;7.85;6.97;;;18.00;99.90;;;;;;5079530;28;20201;-82
2023/07/30 07:39:48;;;;;;;8.07;7.38;;;17.90;99.90;;;;;;5075962;28;20200;-82
2023/07/30 07:42:14;;;;;;;8.40;7.70;;;17.90;99.90;;;;;;5075831;28;20201;-82
2023/07/30 07:44:43;;;;;;;8.23;7.30;;;17.80;99.90;;;;;;5075830;28;20193;-82
2023/07/30 07:47:10;;;;;;;8.25;7.55;;;17.80;99.90;;;;;;5075629;28;20563;-82
2023/07/30 07:49:37;;;;;;;7.07;6.05;;;18.00;99.90;;;;;;5075680;28;20192;-82
2023/07/30 07:52:04;;;;;;;4.93;4.53;;;18.10;99.90;;;;;;5075310;28;20200;-81
2023/07/30 07:54:30;;;;;;;4.30;3.90;;;18.20;99.90;;;;;;5075362;28;20247;-82
2023/07/30 07:56:58;;;;;;;4.18;3.85;;;18.40;99.90;;;;;;5075282;28;20241;-82
2023/07/30 07:59:25;;;;;;;4.00;3.70;;;18.70;99.90;;;;;;5075124;28;20655;-82
2023/07/30 08:01:51;;;;;;;5.07;3.88;;;18.80;99.90;;;;;;5075320;28;20556;-81
2023/07/30 08:04:21;;;;;;;4.03;3.60;;;19.10;99.90;;;;;;5075391;28;20204;-81
2023/07/30 08:06:47;;;;;;;3.90;3.47;;;19.30;99.90;;;;;;5075304;28;20255;-81
2023/07/30 08:09:14;;;;;;;4.75;3.80;;;19.50;99.90;;;;;;5075208;28;20243;-80
2023/07/30 08:11:41;;;;;;;3.80;3.47;;;19.80;99.90;;;;;;5075200;28;20197;-80
2023/07/30 08:14:08;;;;;;;4.20;3.90;;;19.90;99.90;;;;;;5075076;28;20251;-79
2023/07/30 08:16:35;;;;;;;4.35;3.95;;;19.80;99.90;;;;;;5074994;28;20258;-79
2023/07/30 08:19:02;;;;;;;4.07;3.78;;;19.80;99.90;;;;;;5075336;28;20197;-78
2023/07/30 08:21:28;;;;;;;4.10;3.80;;;19.80;99.90;;;;;;5075071;28;20196;-78
2023/07/30 08:23:55;;;;;;;3.80;3.50;;;19.90;99.90;;;;;;5074780;28;20208;-78
2023/07/30 08:26:22;;;;;;;4.38;3.60;;;20.20;99.90;;;;;;5074840;28;20197;-78
2023/07/30 08:28:48;;;;;;;4.20;3.90;;;20.20;99.90;;;;;;5074749;28;20656;-77
2023/07/30 08:31:16;;;;;;;3.70;3.40;;;19.70;99.90;;;;;;5074847;28;20239;-78
2023/07/30 08:33:43;;;;;;;3.90;3.60;;;19.70;99.90;;;;;;5074421;28;20235;-78
2023/07/30 08:36:09;;;;;;;4.03;3.08;;;20.10;99.90;;;;;;5074226;28;20721;-77
2023/07/30 08:38:36;;;;;;;3.30;3.03;;;20.60;99.90;;;;;;5074448;28;20197;-77
2023/07/30 08:41:02;;;;;;;3.55;3.25;;;20.80;99.90;;;;;;5074525;28;20201;-78
2023/07/30 08:43:29;;;;;;;2.90;2.70;;;21.40;99.90;;;;;;5074195;28;20193;-77
2023/07/30 08:45:56;;;;;;;3.72;2.47;;;21.60;99.90;;;;;;5074292;28;20664;-78
2023/07/30 08:48:25;;;;;;;2.85;2.55;;;21.80;99.90;;;;;;5074529;28;20251;-78
2023/07/30 08:50:53;;;;;;;2.58;2.20;;;21.70;99.90;;;;;;5074498;28;20201;-78
2023/07/30 08:53:20;;;;;;;3.40;2.67;;;21.70;99.90;;;;;;5074307;28;20554;-78
2023/07/30 08:55:47;;;;;;;3.65;2.28;;;21.50;99.90;;;;;;5074145;28;20269;-78
2023/07/30 08:58:17;;;;;;;2.63;2.42;;;21.30;99.90;;;;;;5073747;28;20232;-78
2023/07/30 09:00:44;;;;;;;2.30;2.05;;;21.10;99.90;;;;;;5074285;28;20207;-78
2023/07/30 09:03:15;;;;;;;2.30;2.10;;;20.80;99.90;;;;;;5073335;28;20246;-78
2023/07/30 09:05:43;;;;;;;2.30;2.10;;;20.70;99.90;;;;;;5074330;28;20611;-78
2023/07/30 09:08:11;;;;;;;2.28;2.03;;;20.70;99.90;;;;;;5074094;28;20219;-78
2023/07/30 09:10:37;;;;;;;2.50;1.80;;;20.80;99.90;;;;;;5073870;28;20197;-78
2023/07/30 09:13:04;;;;;;;2.85;2.05;;;20.90;99.90;;;;;;5074453;28;20222;-79
2023/07/30 09:15:32;;;;;;;2.40;2.20;;;20.70;99.90;;;;;;5074807;28;20205;-81
2023/07/30 09:18:00;;;;;;;2.42;2.13;;;20.20;99.90;;;;;;5073782;28;20201;-78
2023/07/30 09:20:27;;;;;;;2.22;1.92;;;20.00;99.90;;;;;;5073493;28;20196;-79
2023/07/30 09:22:57;;;;;;;3.25;2.00;;;19.70;99.90;;;;;;5074215;28;20200;-81
2023/07/30 09:25:23;;;;;;;1.92;1.83;;;19.50;99.90;;;;;;5074452;28;20201;-80
2023/07/30 09:27:51;;;;;;;2.55;1.83;;;19.40;99.90;;;;;;5074067;28;20227;-80
2023/07/30 09:30:23;;;;;;;2.17;1.98;;;19.40;99.90;;;;;;5073922;28;20196;-77
2023/07/30 09:32:53;;;;;;;2.13;1.92;;;19.60;99.90;;;;;;5073506;28;20216;-78
2023/07/30 09:35:20;;;;;;;2.10;1.90;;;19.60;99.90;;;;;;5073293;28;20193;-78
2023/07/30 09:37:46;;;;;;;2.15;1.75;;;19.80;99.90;;;;;;5073630;28;20201;-78
2023/07/30 09:40:16;;;;;;;1.90;1.80;;;19.80;99.90;;;;;;5073559;28;20664;-80
2023/07/30 09:42:43;;;;;;;2.10;1.90;;;19.60;99.90;;;;;;5073996;28;20197;-81
2023/07/30 09:45:18;;;;;;;2.50;2.30;;;19.20;99.90;;;;;;5073649;28;20678;-82
2023/07/30 09:47:47;;;;;;;3.25;2.75;;;18.90;99.90;;;;;;5074243;28;20208;-82
2023/07/30 09:50:15;;;;;;;3.22;2.92;;;18.40;99.90;;;;;;5074456;28;20197;-78
2023/07/30 09:52:42;;;;;;;4.00;3.70;;;18.10;99.90;;;;;;5073334;28;20262;-78
2023/07/30 09:55:09;;;;;;;4.38;3.78;;;17.70;99.90;;;;;;5075218;28;20607;-80
2023/07/30 09:57:37;;;;;;;9.65;4.03;;;17.20;99.90;;;;;;5073869;28;20233;-79
2023/07/30 10:00:05;;;;;;;6.25;3.85;;;16.70;99.90;;;;;;5072848;28;20697;-77
2023/07/30 10:02:36;;;;;;;4.20;3.72;;;16.60;99.90;;;;;;5072709;28;20201;-80
2023/07/30 10:05:07;;;;;;;5.03;2.70;;;16.80;99.90;;;;;;5073804;28;20197;-79
2023/07/30 10:07:36;;;;;;;3.92;3.00;;;16.90;99.90;;;;;;5073099;28;20197;-79
2023/07/30 10:10:04;;;;;;;4.13;3.50;;;17.20;99.90;;;;;;5073107;28;20716;-79
2023/07/30 10:12:35;;;;;;;3.95;3.08;;;17.60;99.90;;;;;;5072875;28;20204;-81
2023/07/30 10:15:03;;;;;;;3.92;3.47;;;17.90;99.90;;;;;;5077383;28;20228;-83
2023/07/30 10:17:32;;;;;;;4.18;3.28;;;17.70;99.90;;;;;;5080122;28;20193;-85
2023/07/30 10:20:20;;;;;;;2.90;2.60;;;18.00;99.90;;;;;;5081165;28;20235;-87
2023/07/30 10:22:47;;;;;;;3.55;2.97;;;18.00;99.90;;;;;;5081509;28;20197;-86
2023/07/30 10:25:14;;;;;;;3.70;2.60;;;18.30;99.90;;;;;;5081365;28;20438;-84
2023/07/30 10:27:43;;;;;;;3.30;2.70;;;17.80;99.90;;;;;;5079123;28;20250;-82
2023/07/30 10:30:13;;;;;;;3.20;2.58;;;17.80;99.90;;;;;;5078951;28;20228;-83
2023/07/30 10:32:40;;;;;;;3.47;2.58;;;18.20;99.90;;;;;;5078301;28;20201;-82
2023/07/30 10:35:07;;;;;;;3.33;2.30;;;18.50;99.90;;;;;;5077905;28;20630;-81
2023/07/30 10:37:34;;;;;;;2.80;2.40;;;18.50;99.90;;;;;;5077229;28;20193;-81
2023/07/30 10:40:00;;;;;;;3.08;2.30;;;18.10;99.90;;;;;;5077217;28;20193;-79
2023/07/30 10:42:34;;;;;;;3.30;2.25;;;18.10;99.90;;;;;;5077075;28;20197;-80
2023/07/30 10:45:01;;;;;;;2.92;2.38;;;18.60;99.90;;;;;;5077173;28;20209;-80
2023/07/30 10:47:29;;;;;;;3.75;2.65;;;18.50;99.90;;;;;;5077047;28;20258;-79
2023/07/30 10:50:01;;;;;;;3.10;2.30;;;18.30;99.90;;;;;;5077189;28;20270;-80
2023/07/30 10:52:28;;;;;;;2.75;2.55;;;18.30;99.90;;;;;;5076651;28;20197;-80
2023/07/30 10:55:00;;;;;;;3.00;2.50;;;18.60;99.90;;;;;;5076363;28;20220;-80
2023/07/30 10:57:31;;;;;;;3.40;2.45;;;19.00;99.90;;;;;;5076721;28;20298;-82
2023/07/30 10:59:58;;;;;;;2.67;2.47;;;19.60;99.90;;;;;;5076893;28;20207;-83
2023/07/30 11:02:24;;;;;;;3.30;2.40;;;19.90;99.90;;;;;;5077363;28;20201;-84
2023/07/30 11:04:52;;;;;;;2.50;2.30;;;20.50;99.90;;;;;;5076949;28;20205;-82
2023/07/30 11:07:19;;;;;;;2.60;2.40;;;20.80;99.90;;;;;;5082837;28;20193;-83
2023/07/30 11:09:46;;;;;;;2.25;2.05;;;21.20;99.90;;;;;;5076836;28;20197;-81
2023/07/30 11:12:14;;;;;;;3.80;2.50;;;21.40;99.90;;;;;;5076661;28;20199;-79
2023/07/30 11:14:41;;;;;;;6.03;2.72;;;21.00;99.90;;;;;;5076205;28;20225;-78
2023/07/30 11:17:07;;;;;;;2.40;2.20;;;21.00;99.90;;;;;;5075783;28;20726;-77
2023/07/30 11:19:34;;;;;;;2.50;2.30;;;20.50;99.90;;;;;;5076031;28;20298;-77
2023/07/30 11:22:02;;;;;;;3.10;2.83;;;20.30;99.90;;;;;;5075930;28;20197;-77
2023/07/30 11:24:36;;;;;;;2.90;2.63;;;20.20;99.90;;;;;;5075783;28;20675;-77
2023/07/30 11:27:03;;;;;;;2.72;2.53;;;20.40;99.90;;;;;;5075023;28;20641;-76
2023/07/30 11:29:30;;;;;;;4.50;2.80;;;20.10;99.90;;;;;;5075685;28;20193;-76
2023/07/30 11:31:58;;;;;;;4.07;2.75;;;19.90;99.90;;;;;;5075597;28;20200;-77
2023/07/30 11:34:26;;;;;;;3.03;2.83;;;19.80;99.90;;;;;;5075351;28;20228;-76
2023/07/30 11:36:53;;;;;;;3.05;2.58;;;19.80;99.90;;;;;;5075638;28;20624;-76
2023/07/30 11:39:23;;;;;;;2.92;2.67;;;20.00;99.90;;;;;;5075471;28;20239;-77
2023/07/30 11:41:49;;;;;;;4.00;3.22;;;20.90;99.90;;;;;;5075312;28;20200;-77
2023/07/30 11:44:30;;;;;;;5.38;2.47;;;21.30;99.90;;;;;;5075291;28;20247;-78
2023/07/30 11:46:57;;;;;;;3.20;2.72;;;21.10;99.90;;;;;;5075054;28;20344;-77
2023/07/30 11:49:24;;;;;;;2.67;2.38;;;21.30;99.90;;;;;;5075216;28;20201;-77
2023/07/30 11:51:51;;;;;;;5.10;2.70;;;21.30;99.90;;;;;;5075222;28;20205;-77
2023/07/30 11:54:23;;;;;;;2.65;2.45;;;21.80;99.90;;;;;;5074919;28;20221;-77
2023/07/30 11:56:56;;;;;;;2.95;2.75;;;21.60;99.90;;;;;;5074881;28;20224;-77
2023/07/30 11:59:22;;;;;;;2.58;2.25;;;21.50;99.90;;;;;;5074992;28;20212;-77
2023/07/30 12:01:49;;;;;;;6.05;2.78;;;21.30;99.90;;;;;;5075117;28;20196;-77
2023/07/30 12:04:16;;;;;;;2.80;2.50;;;22.10;99.90;;;;;;5074843;28;20692;-76
2023/07/30 12:06:44;;;;;;;2.80;2.50;;;22.70;99.90;;;;;;5074924;28;20205;-75
2023/07/30 12:09:12;;;;;;;2.80;2.60;;;22.50;99.90;;;;;;5074465;28;20721;-76
2023/07/30 12:11:47;;;;;;;3.83;2.53;;;22.90;99.90;;;;;;5074517;28;20600;-76
2023/07/30 12:14:14;;;;;;;3.05;2.40;;;23.30;99.90;;;;;;5074727;28;20227;-75
2023/07/30 12:16:41;;;;;;;2.63;2.42;;;23.70;99.90;;;;;;5074587;28;20276;-76
2023/07/30 12:19:07;;;;;;;3.13;2.47;;;24.60;99.90;;;;;;5074279;28;20653;-76
2023/07/30 12:21:34;;;;;;;3.55;2.40;;;25.20;99.90;;;;;;5074476;28;20201;-76
2023/07/30 12:24:01;;;;;;;2.90;2.50;;;24.70;99.90;;;;;;5074361;28;20209;-76
2023/07/30 12:26:27;;;;;;;2.85;2.55;;;23.20;99.90;;;;;;5074161;28;20558;-76
2023/07/30 12:28:55;;;;;;;2.88;2.55;;;23.50;99.90;;;;;;5074138;28;20595;-76
2023/07/30 12:31:22;;;;;;;4.30;2.53;;;23.50;99.90;;;;;;5074411;28;20201;-76
2023/07/30 12:33:48;;;;;;;3.75;2.13;;;23.80;99.90;;;;;;5074304;28;20267;-76
2023/07/30 12:36:15;;;;;;;2.55;2.33;;;24.40;99.90;;;;;;5073855;28;20851;-77
2023/07/30 12:38:42;;;;;;;2.58;2.33;;;24.60;99.90;;;;;;5073162;28;20197;-77
2023/07/30 12:41:08;;;;;;;2.55;2.33;;;24.10;99.90;;;;;;5073989;28;20252;-76
2023/07/30 12:43:35;;;;;;;5.68;2.75;;;24.40;99.90;;;;;;5074130;28;20204;-76
2023/07/30 12:46:03;;;;;;;2.78;2.30;;;25.20;99.90;;;;;;5073931;28;20205;-76